Dahinda, Illinois
Current Conditions -  °F | °C
As of 5:55 PM on Monday 20 Oct 2014 (Local Time) from KGBG Reporting Station
Clear Clear  
Wind Chill: 63°   Ceiling: Unl
Heat Index: 63°   Visibility: 10mi
Dew Point: 43°   Wind: 13mph
Humidity: 48%   Direction: 310°NW
Pressure: 29.96"   Gusts: 16mph
Location:  40.92°N, 90.11°W
Report Text: KGBG 202255Z AUTO 31011G14KT 10SM CLR 17/06 A2996 RMK AO2 T01700059
Loading
Personal Weather Stations






























Interactive Weather Map
Tropical Storm Tracking
New forecast layout! Learn more

10-Day Weather Forecast

Advertisements
Track Severe Weather on mobile